Startpagina
METAR-TAF:

METAR-TAF

Vliegvelden :

Morlaix, Frankrijk

breedte: 48-36N, lengte: 3-49W, hoogte: 84 m

Actueel weer

Dit bericht is 3 uur en het 23 minuten geleden gemaakt, om 20:00 UTC
Wind 7 kt uit het noordnoordwesten
Temperatuur 16°C
Vochtigheid 94%
Druk 1023 hPa
Zicht 10 km of meer
Gebroken wolken op 600 ft

METAR: LFRU 142000Z AUTO 34007KT 9999 BKN006 16/15 Q1023

Tijdstip: 01:23 (23:23 UTC)


TAF: ontbreekt

Waarnemingen en weersverwachtingen van meer dan 4000 vliegvelden (METAR en TAF).

De beschikbare stations zijn de gele en rode punten op de kaart.

Ga met uw muis naar het station om de naam te zien.

Klik dan om waarnemingen en weersverwachtingen te zien.

kaart wijzigen: klik op de groene knoppen met een zwart kruis om in te zoomen, op de groene knop met een streepje om uit te zoomen of op de groene pijlen voor aangrenzende kaarten.


METAR-TAF: